sensor_id;sensor_type;location;lat;lon;timestamp;P1;durP1;ratioP1;P2;durP2;ratioP2
73850;SDS011;62190;51.548;5.688;2023-06-01T00:00:39;13.83;;;8.30;;
73850;SDS011;62190;51.548;5.688;2023-06-01T00:03:06;18.45;;;9.13;;
73850;SDS011;62190;51.548;5.688;2023-06-01T00:05:37;13.70;;;8.53;;
73850;SDS011;62190;51.548;5.688;2023-06-01T00:08:05;14.87;;;8.50;;
73850;SDS011;62190;51.548;5.688;2023-06-01T00:10:33;12.80;;;8.35;;
73850;SDS011;62190;51.548;5.688;2023-06-01T00:13:00;19.82;;;9.63;;
73850;SDS011;62190;51.548;5.688;2023-06-01T00:15:28;18.73;;;9.55;;
73850;SDS011;62190;51.548;5.688;2023-06-01T00:17:57;17.55;;;9.13;;
73850;SDS011;62190;51.548;5.688;2023-06-01T00:20:26;16.17;;;9.50;;
73850;SDS011;62190;51.548;5.688;2023-06-01T00:22:56;18.82;;;9.68;;
73850;SDS011;62190;51.548;5.688;2023-06-01T00:25:25;14.53;;;9.15;;
73850;SDS011;62190;51.548;5.688;2023-06-01T00:27:54;18.30;;;9.65;;
73850;SDS011;62190;51.548;5.688;2023-06-01T00:30:25;17.05;;;9.60;;
73850;SDS011;62190;51.548;5.688;2023-06-01T00:32:56;22.17;;;9.93;;
73850;SDS011;62190;51.548;5.688;2023-06-01T00:35:23;16.82;;;9.73;;
73850;SDS011;62190;51.548;5.688;2023-06-01T00:37:52;18.60;;;10.70;;
73850;SDS011;62190;51.548;5.688;2023-06-01T00:40:22;24.15;;;10.38;;
73850;SDS011;62190;51.548;5.688;2023-06-01T00:42:50;19.55;;;9.95;;
73850;SDS011;62190;51.548;5.688;2023-06-01T00:45:17;21.62;;;11.35;;
73850;SDS011;62190;51.548;5.688;2023-06-01T00:47:44;17.85;;;10.95;;
73850;SDS011;62190;51.548;5.688;2023-06-01T00:50:12;21.27;;;11.55;;
73850;SDS011;62190;51.548;5.688;2023-06-01T00:52:39;24.05;;;11.83;;
73850;SDS011;62190;51.548;5.688;2023-06-01T00:55:09;19.50;;;10.63;;
73850;SDS011;62190;51.548;5.688;2023-06-01T00:57:38;21.80;;;11.30;;
73850;SDS011;62190;51.548;5.688;2023-06-01T01:00:08;21.75;;;11.75;;
73850;SDS011;62190;51.548;5.688;2023-06-01T01:02:38;23.85;;;11.55;;
73850;SDS011;62190;51.548;5.688;2023-06-01T01:05:09;19.73;;;11.18;;
73850;SDS011;62190;51.548;5.688;2023-06-01T01:07:51;20.55;;;11.45;;
73850;SDS011;62190;51.548;5.688;2023-06-01T01:10:45;23.38;;;13.15;;
73850;SDS011;62190;51.548;5.688;2023-06-01T01:13:23;24.12;;;12.78;;
73850;SDS011;62190;51.548;5.688;2023-06-01T01:16:07;24.45;;;12.98;;
73850;SDS011;62190;51.548;5.688;2023-06-01T01:21:42;24.72;;;11.57;;
73850;SDS011;62190;51.548;5.688;2023-06-01T01:24:15;23.83;;;12.53;;
73850;SDS011;62190;51.548;5.688;2023-06-01T01:26:56;21.65;;;11.00;;
73850;SDS011;62190;51.548;5.688;2023-06-01T01:29:29;23.10;;;11.28;;
73850;SDS011;62190;51.548;5.688;2023-06-01T01:31:59;18.50;;;10.43;;
73850;SDS011;62190;51.548;5.688;2023-06-01T01:34:27;22.42;;;10.28;;
73850;SDS011;62190;51.548;5.688;2023-06-01T01:36:55;21.52;;;11.18;;
73850;SDS011;62190;51.548;5.688;2023-06-01T01:39:22;24.40;;;11.55;;
73850;SDS011;62190;51.548;5.688;2023-06-01T01:41:50;22.90;;;10.75;;
73850;SDS011;62190;51.548;5.688;2023-06-01T01:44:17;21.93;;;12.05;;
73850;SDS011;62190;51.548;5.688;2023-06-01T01:49:53;20.80;;;10.43;;
73850;SDS011;62190;51.548;5.688;2023-06-01T01:52:14;21.05;;;10.50;;
73850;SDS011;62190;51.548;5.688;2023-06-01T01:54:43;23.32;;;11.30;;
73850;SDS011;62190;51.548;5.688;2023-06-01T01:57:12;21.48;;;11.10;;
73850;SDS011;62190;51.548;5.688;2023-06-01T01:59:42;19.23;;;10.30;;
73850;SDS011;62190;51.548;5.688;2023-06-01T02:02:10;20.43;;;10.63;;
73850;SDS011;62190;51.548;5.688;2023-06-01T02:04:46;22.25;;;12.03;;
73850;SDS011;62190;51.548;5.688;2023-06-01T02:07:10;22.42;;;11.50;;
73850;SDS011;62190;51.548;5.688;2023-06-01T02:09:38;21.55;;;11.00;;
73850;SDS011;62190;51.548;5.688;2023-06-01T02:12:07;20.90;;;11.05;;
73850;SDS011;62190;51.548;5.688;2023-06-01T02:14:35;20.15;;;11.68;;
73850;SDS011;62190;51.548;5.688;2023-06-01T02:17:05;19.50;;;11.22;;
73850;SDS011;62190;51.548;5.688;2023-06-01T02:19:33;22.85;;;10.63;;
73850;SDS011;62190;51.548;5.688;2023-06-01T02:22:00;21.70;;;10.72;;
73850;SDS011;62190;51.548;5.688;2023-06-01T02:24:29;18.07;;;10.65;;
73850;SDS011;62190;51.548;5.688;2023-06-01T02:26:57;21.45;;;10.85;;
73850;SDS011;62190;51.548;5.688;2023-06-01T02:29:24;20.17;;;10.70;;
73850;SDS011;62190;51.548;5.688;2023-06-01T02:31:52;18.57;;;9.73;;
73850;SDS011;62190;51.548;5.688;2023-06-01T02:34:20;20.35;;;11.18;;
73850;SDS011;62190;51.548;5.688;2023-06-01T02:36:47;20.17;;;10.72;;
73850;SDS011;62190;51.548;5.688;2023-06-01T02:39:15;20.92;;;11.08;;
73850;SDS011;62190;51.548;5.688;2023-06-01T02:41:42;20.65;;;11.80;;
73850;SDS011;62190;51.548;5.688;2023-06-01T02:44:11;22.00;;;11.18;;
73850;SDS011;62190;51.548;5.688;2023-06-01T02:46:38;23.83;;;11.03;;
73850;SDS011;62190;51.548;5.688;2023-06-01T02:49:06;22.58;;;11.95;;
73850;SDS011;62190;51.548;5.688;2023-06-01T02:51:33;20.32;;;12.55;;
73850;SDS011;62190;51.548;5.688;2023-06-01T02:54:02;21.07;;;11.75;;
73850;SDS011;62190;51.548;5.688;2023-06-01T02:56:31;25.85;;;11.97;;
73850;SDS011;62190;51.548;5.688;2023-06-01T02:58:59;20.72;;;12.60;;
73850;SDS011;62190;51.548;5.688;2023-06-01T03:01:28;26.33;;;12.07;;
73850;SDS011;62190;51.548;5.688;2023-06-01T03:03:57;24.02;;;12.10;;
73850;SDS011;62190;51.548;5.688;2023-06-01T03:06:25;19.75;;;11.40;;
73850;SDS011;62190;51.548;5.688;2023-06-01T03:08:55;24.63;;;13.15;;
73850;SDS011;62190;51.548;5.688;2023-06-01T03:11:24;17.75;;;11.88;;
73850;SDS011;62190;51.548;5.688;2023-06-01T03:13:52;16.87;;;11.90;;
73850;SDS011;62190;51.548;5.688;2023-06-01T03:16:23;24.92;;;13.43;;
73850;SDS011;62190;51.548;5.688;2023-06-01T03:18:53;21.97;;;13.05;;
73850;SDS011;62190;51.548;5.688;2023-06-01T03:21:21;20.37;;;13.90;;
73850;SDS011;62190;51.548;5.688;2023-06-01T03:23:53;23.20;;;13.45;;
73850;SDS011;62190;51.548;5.688;2023-06-01T03:26:19;26.62;;;14.70;;
73850;SDS011;62190;51.548;5.688;2023-06-01T03:28:47;26.35;;;14.85;;
73850;SDS011;62190;51.548;5.688;2023-06-01T03:31:14;19.92;;;13.20;;
73850;SDS011;62190;51.548;5.688;2023-06-01T03:33:42;24.45;;;15.23;;
73850;SDS011;62190;51.548;5.688;2023-06-01T03:36:09;23.90;;;13.68;;
73850;SDS011;62190;51.548;5.688;2023-06-01T03:38:39;21.93;;;14.33;;
73850;SDS011;62190;51.548;5.688;2023-06-01T03:41:10;22.82;;;14.25;;
73850;SDS011;62190;51.548;5.688;2023-06-01T03:43:38;22.35;;;13.98;;
73850;SDS011;62190;51.548;5.688;2023-06-01T03:46:05;29.77;;;14.83;;
73850;SDS011;62190;51.548;5.688;2023-06-01T03:48:33;24.72;;;15.13;;
73850;SDS011;62190;51.548;5.688;2023-06-01T03:51:00;24.77;;;14.50;;
73850;SDS011;62190;51.548;5.688;2023-06-01T03:53:27;23.67;;;14.58;;
73850;SDS011;62190;51.548;5.688;2023-06-01T03:55:57;20.80;;;13.68;;
73850;SDS011;62190;51.548;5.688;2023-06-01T03:58:24;23.52;;;13.88;;
73850;SDS011;62190;51.548;5.688;2023-06-01T04:00:53;22.52;;;13.88;;
73850;SDS011;62190;51.548;5.688;2023-06-01T04:03:24;21.37;;;13.25;;
73850;SDS011;62190;51.548;5.688;2023-06-01T04:05:51;18.95;;;12.60;;
73850;SDS011;62190;51.548;5.688;2023-06-01T04:08:21;22.52;;;13.25;;
73850;SDS011;62190;51.548;5.688;2023-06-01T04:10:49;18.45;;;12.23;;
73850;SDS011;62190;51.548;5.688;2023-06-01T04:13:16;19.35;;;11.15;;
73850;SDS011;62190;51.548;5.688;2023-06-01T04:15:44;19.02;;;11.55;;
73850;SDS011;62190;51.548;5.688;2023-06-01T04:18:13;16.60;;;11.55;;
73850;SDS011;62190;51.548;5.688;2023-06-01T04:20:40;21.97;;;11.38;;
73850;SDS011;62190;51.548;5.688;2023-06-01T04:23:08;19.27;;;11.80;;
73850;SDS011;62190;51.548;5.688;2023-06-01T04:25:36;22.70;;;12.13;;
73850;SDS011;62190;51.548;5.688;2023-06-01T04:28:04;20.35;;;11.78;;
73850;SDS011;62190;51.548;5.688;2023-06-01T04:30:32;18.77;;;10.50;;
73850;SDS011;62190;51.548;5.688;2023-06-01T04:33:01;21.35;;;11.93;;
73850;SDS011;62190;51.548;5.688;2023-06-01T04:35:30;20.05;;;11.60;;
73850;SDS011;62190;51.548;5.688;2023-06-01T04:37:58;17.48;;;11.33;;
73850;SDS011;62190;51.548;5.688;2023-06-01T04:40:26;22.25;;;12.28;;
73850;SDS011;62190;51.548;5.688;2023-06-01T04:42:55;19.25;;;11.03;;
73850;SDS011;62190;51.548;5.688;2023-06-01T04:45:25;23.12;;;11.78;;
73850;SDS011;62190;51.548;5.688;2023-06-01T04:47:54;18.95;;;11.18;;
73850;SDS011;62190;51.548;5.688;2023-06-01T04:50:23;21.00;;;11.97;;
73850;SDS011;62190;51.548;5.688;2023-06-01T04:52:52;20.05;;;12.90;;
73850;SDS011;62190;51.548;5.688;2023-06-01T04:55:20;21.02;;;13.95;;
73850;SDS011;62190;51.548;5.688;2023-06-01T04:57:48;18.45;;;11.30;;
73850;SDS011;62190;51.548;5.688;2023-06-01T05:00:16;18.48;;;11.80;;
73850;SDS011;62190;51.548;5.688;2023-06-01T05:02:45;20.30;;;11.35;;
73850;SDS011;62190;51.548;5.688;2023-06-01T05:05:15;16.67;;;11.33;;
73850;SDS011;62190;51.548;5.688;2023-06-01T05:07:43;19.52;;;11.35;;
73850;SDS011;62190;51.548;5.688;2023-06-01T05:10:12;21.10;;;10.98;;
73850;SDS011;62190;51.548;5.688;2023-06-01T05:12:42;17.20;;;10.88;;
73850;SDS011;62190;51.548;5.688;2023-06-01T05:15:11;18.73;;;10.72;;
73850;SDS011;62190;51.548;5.688;2023-06-01T05:17:41;20.30;;;12.07;;
73850;SDS011;62190;51.548;5.688;2023-06-01T05:20:11;19.50;;;11.33;;
73850;SDS011;62190;51.548;5.688;2023-06-01T05:22:39;15.20;;;10.53;;
73850;SDS011;62190;51.548;5.688;2023-06-01T05:25:06;17.42;;;11.73;;
73850;SDS011;62190;51.548;5.688;2023-06-01T05:27:34;22.35;;;11.25;;
73850;SDS011;62190;51.548;5.688;2023-06-01T05:30:02;19.35;;;11.40;;
73850;SDS011;62190;51.548;5.688;2023-06-01T05:32:31;19.35;;;11.30;;
73850;SDS011;62190;51.548;5.688;2023-06-01T05:34:58;21.05;;;12.85;;
73850;SDS011;62190;51.548;5.688;2023-06-01T05:37:25;19.30;;;11.03;;
73850;SDS011;62190;51.548;5.688;2023-06-01T05:39:53;19.85;;;11.55;;
73850;SDS011;62190;51.548;5.688;2023-06-01T05:42:20;21.17;;;12.35;;
73850;SDS011;62190;51.548;5.688;2023-06-01T05:44:47;22.00;;;12.23;;
73850;SDS011;62190;51.548;5.688;2023-06-01T05:47:15;19.25;;;13.08;;
73850;SDS011;62190;51.548;5.688;2023-06-01T05:49:42;19.27;;;11.73;;
73850;SDS011;62190;51.548;5.688;2023-06-01T05:52:10;19.17;;;12.37;;
73850;SDS011;62190;51.548;5.688;2023-06-01T05:54:39;18.90;;;11.95;;
73850;SDS011;62190;51.548;5.688;2023-06-01T05:57:06;20.10;;;11.50;;
73850;SDS011;62190;51.548;5.688;2023-06-01T05:59:33;20.62;;;11.83;;
73850;SDS011;62190;51.548;5.688;2023-06-01T06:02:01;24.52;;;12.35;;
73850;SDS011;62190;51.548;5.688;2023-06-01T06:04:28;20.80;;;11.50;;
73850;SDS011;62190;51.548;5.688;2023-06-01T06:06:55;19.75;;;10.82;;
73850;SDS011;62190;51.548;5.688;2023-06-01T06:09:23;17.57;;;9.88;;
73850;SDS011;62190;51.548;5.688;2023-06-01T06:11:51;19.23;;;10.75;;
73850;SDS011;62190;51.548;5.688;2023-06-01T06:14:18;17.73;;;8.83;;
73850;SDS011;62190;51.548;5.688;2023-06-01T06:16:46;17.77;;;11.43;;
73850;SDS011;62190;51.548;5.688;2023-06-01T06:19:13;18.52;;;9.78;;
73850;SDS011;62190;51.548;5.688;2023-06-01T06:21:41;16.32;;;10.23;;
73850;SDS011;62190;51.548;5.688;2023-06-01T06:24:09;24.87;;;11.75;;
73850;SDS011;62190;51.548;5.688;2023-06-01T06:26:37;15.05;;;9.38;;
73850;SDS011;62190;51.548;5.688;2023-06-01T06:29:05;14.63;;;8.55;;
73850;SDS011;62190;51.548;5.688;2023-06-01T06:31:32;18.48;;;8.78;;
73850;SDS011;62190;51.548;5.688;2023-06-01T06:33:59;15.63;;;9.65;;
73850;SDS011;62190;51.548;5.688;2023-06-01T06:36:27;15.08;;;9.88;;
73850;SDS011;62190;51.548;5.688;2023-06-01T06:38:54;11.30;;;7.70;;
73850;SDS011;62190;51.548;5.688;2023-06-01T06:41:22;15.13;;;8.35;;
73850;SDS011;62190;51.548;5.688;2023-06-01T06:43:50;12.47;;;7.30;;
73850;SDS011;62190;51.548;5.688;2023-06-01T06:46:17;15.25;;;8.00;;
73850;SDS011;62190;51.548;5.688;2023-06-01T06:48:44;12.78;;;7.62;;
73850;SDS011;62190;51.548;5.688;2023-06-01T06:51:12;11.85;;;7.58;;
73850;SDS011;62190;51.548;5.688;2023-06-01T06:53:39;11.78;;;7.75;;
73850;SDS011;62190;51.548;5.688;2023-06-01T06:56:06;12.40;;;7.97;;
73850;SDS011;62190;51.548;5.688;2023-06-01T06:58:33;12.28;;;7.62;;
73850;SDS011;62190;51.548;5.688;2023-06-01T07:01:03;13.58;;;7.75;;
73850;SDS011;62190;51.548;5.688;2023-06-01T07:03:33;15.28;;;8.05;;
73850;SDS011;62190;51.548;5.688;2023-06-01T07:06:04;13.98;;;8.00;;
73850;SDS011;62190;51.548;5.688;2023-06-01T07:08:33;18.07;;;8.10;;
73850;SDS011;62190;51.548;5.688;2023-06-01T07:11:03;14.50;;;8.05;;
73850;SDS011;62190;51.548;5.688;2023-06-01T07:13:30;13.35;;;7.92;;
73850;SDS011;62190;51.548;5.688;2023-06-01T07:15:58;17.80;;;8.58;;
73850;SDS011;62190;51.548;5.688;2023-06-01T07:18:25;14.73;;;7.20;;
73850;SDS011;62190;51.548;5.688;2023-06-01T07:20:52;13.95;;;8.48;;
73850;SDS011;62190;51.548;5.688;2023-06-01T07:23:20;15.23;;;7.40;;
73850;SDS011;62190;51.548;5.688;2023-06-01T07:25:47;13.50;;;7.50;;
73850;SDS011;62190;51.548;5.688;2023-06-01T07:28:15;12.65;;;7.08;;
73850;SDS011;62190;51.548;5.688;2023-06-01T07:30:42;11.60;;;7.28;;
73850;SDS011;62190;51.548;5.688;2023-06-01T07:33:10;12.70;;;7.05;;
73850;SDS011;62190;51.548;5.688;2023-06-01T07:35:37;12.65;;;7.42;;
73850;SDS011;62190;51.548;5.688;2023-06-01T07:38:05;13.58;;;8.03;;
73850;SDS011;62190;51.548;5.688;2023-06-01T07:40:32;10.78;;;7.53;;
73850;SDS011;62190;51.548;5.688;2023-06-01T07:43:00;15.38;;;7.83;;
73850;SDS011;62190;51.548;5.688;2023-06-01T07:45:27;13.40;;;7.85;;
73850;SDS011;62190;51.548;5.688;2023-06-01T07:47:55;11.63;;;7.42;;
73850;SDS011;62190;51.548;5.688;2023-06-01T07:50:22;13.88;;;7.55;;
73850;SDS011;62190;51.548;5.688;2023-06-01T07:52:51;12.53;;;7.55;;
73850;SDS011;62190;51.548;5.688;2023-06-01T07:55:19;14.78;;;7.62;;
73850;SDS011;62190;51.548;5.688;2023-06-01T07:57:46;11.75;;;8.23;;
73850;SDS011;62190;51.548;5.688;2023-06-01T08:00:13;14.28;;;7.92;;
73850;SDS011;62190;51.548;5.688;2023-06-01T08:02:43;14.47;;;7.50;;
73850;SDS011;62190;51.548;5.688;2023-06-01T08:05:11;11.97;;;7.33;;
73850;SDS011;62190;51.548;5.688;2023-06-01T08:07:40;14.15;;;8.00;;
73850;SDS011;62190;51.548;5.688;2023-06-01T08:10:08;15.45;;;7.60;;
73850;SDS011;62190;51.548;5.688;2023-06-01T08:12:35;11.88;;;7.50;;
73850;SDS011;62190;51.548;5.688;2023-06-01T08:15:03;15.03;;;8.50;;
73850;SDS011;62190;51.548;5.688;2023-06-01T08:17:31;12.95;;;8.15;;
73850;SDS011;62190;51.548;5.688;2023-06-01T08:19:58;13.75;;;8.33;;
73850;SDS011;62190;51.548;5.688;2023-06-01T08:22:26;13.60;;;7.35;;
73850;SDS011;62190;51.548;5.688;2023-06-01T08:24:54;14.35;;;8.20;;
73850;SDS011;62190;51.548;5.688;2023-06-01T08:27:23;13.60;;;7.95;;
73850;SDS011;62190;51.548;5.688;2023-06-01T08:29:50;14.90;;;7.72;;
73850;SDS011;62190;51.548;5.688;2023-06-01T08:32:18;15.83;;;8.75;;
73850;SDS011;62190;51.548;5.688;2023-06-01T08:34:46;12.75;;;7.50;;
73850;SDS011;62190;51.548;5.688;2023-06-01T08:37:13;11.65;;;6.97;;
73850;SDS011;62190;51.548;5.688;2023-06-01T08:39:41;12.20;;;7.80;;
73850;SDS011;62190;51.548;5.688;2023-06-01T08:42:09;14.78;;;7.78;;
73850;SDS011;62190;51.548;5.688;2023-06-01T08:44:42;12.88;;;7.78;;
73850;SDS011;62190;51.548;5.688;2023-06-01T08:47:09;11.38;;;7.15;;
73850;SDS011;62190;51.548;5.688;2023-06-01T08:49:36;14.25;;;9.13;;
73850;SDS011;62190;51.548;5.688;2023-06-01T08:52:11;14.95;;;8.50;;
73850;SDS011;62190;51.548;5.688;2023-06-01T08:54:39;17.27;;;7.97;;
73850;SDS011;62190;51.548;5.688;2023-06-01T08:57:07;14.60;;;9.13;;
73850;SDS011;62190;51.548;5.688;2023-06-01T08:59:34;15.13;;;8.73;;
73850;SDS011;62190;51.548;5.688;2023-06-01T09:02:03;15.72;;;8.80;;
73850;SDS011;62190;51.548;5.688;2023-06-01T09:04:32;10.45;;;7.70;;
73850;SDS011;62190;51.548;5.688;2023-06-01T09:07:01;14.55;;;7.97;;
73850;SDS011;62190;51.548;5.688;2023-06-01T09:09:29;13.68;;;7.83;;
73850;SDS011;62190;51.548;5.688;2023-06-01T09:14:44;12.33;;;7.30;;
73850;SDS011;62190;51.548;5.688;2023-06-01T09:17:15;12.82;;;8.38;;
73850;SDS011;62190;51.548;5.688;2023-06-01T09:19:50;11.03;;;7.72;;
73850;SDS011;62190;51.548;5.688;2023-06-01T09:22:20;12.73;;;8.53;;
73850;SDS011;62190;51.548;5.688;2023-06-01T09:24:57;16.52;;;7.83;;
73850;SDS011;62190;51.548;5.688;2023-06-01T09:27:26;13.03;;;7.42;;
73850;SDS011;62190;51.548;5.688;2023-06-01T09:29:58;11.90;;;7.92;;
73850;SDS011;62190;51.548;5.688;2023-06-01T09:32:24;10.32;;;7.95;;
73850;SDS011;62190;51.548;5.688;2023-06-01T09:34:53;13.10;;;8.75;;
73850;SDS011;62190;51.548;5.688;2023-06-01T09:37:23;13.00;;;9.33;;
73850;SDS011;62190;51.548;5.688;2023-06-01T09:39:51;11.43;;;8.33;;
73850;SDS011;62190;51.548;5.688;2023-06-01T09:42:24;16.52;;;9.00;;
73850;SDS011;62190;51.548;5.688;2023-06-01T09:45:13;12.58;;;9.23;;
73850;SDS011;62190;51.548;5.688;2023-06-01T09:47:47;13.00;;;8.33;;
73850;SDS011;62190;51.548;5.688;2023-06-01T09:53:04;12.80;;;9.03;;
73850;SDS011;62190;51.548;5.688;2023-06-01T09:55:32;16.17;;;9.65;;
73850;SDS011;62190;51.548;5.688;2023-06-01T09:58:18;13.60;;;8.80;;
73850;SDS011;62190;51.548;5.688;2023-06-01T10:00:50;14.55;;;9.43;;
73850;SDS011;62190;51.548;5.688;2023-06-01T10:03:18;14.90;;;9.33;;
73850;SDS011;62190;51.548;5.688;2023-06-01T10:05:48;18.32;;;9.03;;
73850;SDS011;62190;51.548;5.688;2023-06-01T10:08:19;13.78;;;8.95;;
73850;SDS011;62190;51.548;5.688;2023-06-01T10:10:47;13.50;;;9.55;;
73850;SDS011;62190;51.548;5.688;2023-06-01T10:13:15;16.87;;;9.75;;
73850;SDS011;62190;51.548;5.688;2023-06-01T10:15:43;12.00;;;8.83;;
73850;SDS011;62190;51.548;5.688;2023-06-01T10:18:10;14.75;;;9.28;;
73850;SDS011;62190;51.548;5.688;2023-06-01T10:20:39;14.78;;;8.70;;
73850;SDS011;62190;51.548;5.688;2023-06-01T10:23:06;12.30;;;8.03;;
73850;SDS011;62190;51.548;5.688;2023-06-01T10:25:38;16.02;;;9.23;;
73850;SDS011;62190;51.548;5.688;2023-06-01T10:28:11;9.08;;;7.97;;
73850;SDS011;62190;51.548;5.688;2023-06-01T10:30:38;12.05;;;7.95;;
73850;SDS011;62190;51.548;5.688;2023-06-01T10:33:06;14.35;;;7.80;;
73850;SDS011;62190;51.548;5.688;2023-06-01T10:40:48;13.40;;;9.20;;
73850;SDS011;62190;51.548;5.688;2023-06-01T10:51:28;12.68;;;7.75;;
73850;SDS011;62190;51.548;5.688;2023-06-01T10:54:23;16.82;;;8.48;;
73850;SDS011;62190;51.548;5.688;2023-06-01T10:56:42;14.73;;;7.33;;
73850;SDS011;62190;51.548;5.688;2023-06-01T10:59:10;12.68;;;7.62;;
73850;SDS011;62190;51.548;5.688;2023-06-01T11:01:42;11.20;;;7.62;;
73850;SDS011;62190;51.548;5.688;2023-06-01T11:04:10;12.60;;;7.20;;
73850;SDS011;62190;51.548;5.688;2023-06-01T11:06:39;11.53;;;7.25;;
73850;SDS011;62190;51.548;5.688;2023-06-01T11:09:09;11.60;;;7.20;;
73850;SDS011;62190;51.548;5.688;2023-06-01T11:14:28;18.35;;;8.50;;
73850;SDS011;62190;51.548;5.688;2023-06-01T11:19:58;12.70;;;9.13;;
73850;SDS011;62190;51.548;5.688;2023-06-01T11:22:32;13.30;;;6.62;;
73850;SDS011;62190;51.548;5.688;2023-06-01T11:25:04;12.55;;;7.97;;
73850;SDS011;62190;51.548;5.688;2023-06-01T11:27:33;15.60;;;7.78;;
73850;SDS011;62190;51.548;5.688;2023-06-01T11:30:03;13.48;;;7.35;;
73850;SDS011;62190;51.548;5.688;2023-06-01T11:32:32;13.00;;;7.22;;
73850;SDS011;62190;51.548;5.688;2023-06-01T11:35:14;14.33;;;8.20;;
73850;SDS011;62190;51.548;5.688;2023-06-01T11:37:34;12.58;;;7.45;;
73850;SDS011;62190;51.548;5.688;2023-06-01T11:40:07;12.10;;;7.17;;
73850;SDS011;62190;51.548;5.688;2023-06-01T11:42:36;12.50;;;7.35;;
73850;SDS011;62190;51.548;5.688;2023-06-01T11:45:03;10.58;;;7.25;;
73850;SDS011;62190;51.548;5.688;2023-06-01T11:47:31;13.58;;;7.03;;
73850;SDS011;62190;51.548;5.688;2023-06-01T11:50:00;10.18;;;6.80;;
73850;SDS011;62190;51.548;5.688;2023-06-01T11:52:28;13.05;;;7.58;;
73850;SDS011;62190;51.548;5.688;2023-06-01T11:55:01;15.48;;;8.43;;
73850;SDS011;62190;51.548;5.688;2023-06-01T11:57:32;13.03;;;6.72;;
73850;SDS011;62190;51.548;5.688;2023-06-01T12:00:01;11.33;;;6.62;;
73850;SDS011;62190;51.548;5.688;2023-06-01T12:02:31;10.28;;;6.85;;
73850;SDS011;62190;51.548;5.688;2023-06-01T12:05:06;12.68;;;7.40;;
73850;SDS011;62190;51.548;5.688;2023-06-01T12:07:32;12.88;;;6.80;;
73850;SDS011;62190;51.548;5.688;2023-06-01T12:10:01;12.95;;;6.78;;
73850;SDS011;62190;51.548;5.688;2023-06-01T12:12:31;12.07;;;7.00;;
73850;SDS011;62190;51.548;5.688;2023-06-01T12:15:01;10.68;;;6.37;;
73850;SDS011;62190;51.548;5.688;2023-06-01T12:17:46;11.55;;;5.80;;
73850;SDS011;62190;51.548;5.688;2023-06-01T12:20:29;11.70;;;6.33;;
73850;SDS011;62190;51.548;5.688;2023-06-01T12:23:00;10.08;;;6.25;;
73850;SDS011;62190;51.548;5.688;2023-06-01T12:28:46;13.40;;;6.35;;
73850;SDS011;62190;51.548;5.688;2023-06-01T12:31:16;9.93;;;6.45;;
73850;SDS011;62190;51.548;5.688;2023-06-01T12:33:45;11.65;;;6.37;;
73850;SDS011;62190;51.548;5.688;2023-06-01T12:36:48;9.50;;;6.12;;
73850;SDS011;62190;51.548;5.688;2023-06-01T12:38:58;12.60;;;6.55;;
73850;SDS011;62190;51.548;5.688;2023-06-01T12:41:27;10.85;;;5.35;;
73850;SDS011;62190;51.548;5.688;2023-06-01T12:43:57;10.65;;;6.05;;
73850;SDS011;62190;51.548;5.688;2023-06-01T12:46:29;17.27;;;7.28;;
73850;SDS011;62190;51.548;5.688;2023-06-01T12:49:16;13.13;;;5.85;;
73850;SDS011;62190;51.548;5.688;2023-06-01T12:51:46;11.75;;;6.65;;
73850;SDS011;62190;51.548;5.688;2023-06-01T12:54:14;9.88;;;5.85;;
73850;SDS011;62190;51.548;5.688;2023-06-01T12:56:41;10.48;;;5.42;;
73850;SDS011;62190;51.548;5.688;2023-06-01T12:59:08;11.78;;;5.37;;
73850;SDS011;62190;51.548;5.688;2023-06-01T13:01:36;9.63;;;5.70;;
73850;SDS011;62190;51.548;5.688;2023-06-01T13:04:03;8.10;;;5.70;;
73850;SDS011;62190;51.548;5.688;2023-06-01T13:06:31;8.98;;;5.75;;
73850;SDS011;62190;51.548;5.688;2023-06-01T13:09:00;8.83;;;4.92;;
73850;SDS011;62190;51.548;5.688;2023-06-01T13:11:28;11.95;;;6.22;;
73850;SDS011;62190;51.548;5.688;2023-06-01T13:13:56;9.68;;;5.17;;
73850;SDS011;62190;51.548;5.688;2023-06-01T13:16:23;12.28;;;5.92;;
73850;SDS011;62190;51.548;5.688;2023-06-01T13:18:50;9.15;;;5.58;;
73850;SDS011;62190;51.548;5.688;2023-06-01T13:21:17;8.98;;;5.42;;
73850;SDS011;62190;51.548;5.688;2023-06-01T13:23:45;9.80;;;5.25;;
73850;SDS011;62190;51.548;5.688;2023-06-01T13:26:12;9.10;;;5.40;;
73850;SDS011;62190;51.548;5.688;2023-06-01T13:28:40;9.63;;;4.95;;
73850;SDS011;62190;51.548;5.688;2023-06-01T13:31:07;9.53;;;5.17;;
73850;SDS011;62190;51.548;5.688;2023-06-01T13:33:34;12.55;;;6.40;;
73850;SDS011;62190;51.548;5.688;2023-06-01T13:36:02;9.28;;;6.05;;
73850;SDS011;62190;51.548;5.688;2023-06-01T13:38:31;9.38;;;5.78;;
73850;SDS011;62190;51.548;5.688;2023-06-01T13:40:58;13.22;;;5.58;;
73850;SDS011;62190;51.548;5.688;2023-06-01T13:43:25;10.85;;;5.40;;
73850;SDS011;62190;51.548;5.688;2023-06-01T13:45:53;8.48;;;5.47;;
73850;SDS011;62190;51.548;5.688;2023-06-01T13:48:20;9.05;;;5.40;;
73850;SDS011;62190;51.548;5.688;2023-06-01T13:50:47;10.60;;;6.28;;
73850;SDS011;62190;51.548;5.688;2023-06-01T13:53:15;9.93;;;6.05;;
73850;SDS011;62190;51.548;5.688;2023-06-01T13:55:42;11.20;;;6.72;;
73850;SDS011;62190;51.548;5.688;2023-06-01T13:58:09;10.80;;;6.37;;
73850;SDS011;62190;51.548;5.688;2023-06-01T14:00:37;11.90;;;7.28;;
73850;SDS011;62190;51.548;5.688;2023-06-01T14:03:05;12.95;;;6.85;;
73850;SDS011;62190;51.548;5.688;2023-06-01T14:05:33;10.50;;;6.03;;
73850;SDS011;62190;51.548;5.688;2023-06-01T14:08:00;12.07;;;5.42;;
73850;SDS011;62190;51.548;5.688;2023-06-01T14:10:29;11.70;;;6.70;;
73850;SDS011;62190;51.548;5.688;2023-06-01T14:12:58;15.55;;;7.42;;
73850;SDS011;62190;51.548;5.688;2023-06-01T14:15:26;11.78;;;6.05;;
73850;SDS011;62190;51.548;5.688;2023-06-01T14:17:53;10.70;;;5.92;;
73850;SDS011;62190;51.548;5.688;2023-06-01T14:20:21;11.65;;;6.20;;
73850;SDS011;62190;51.548;5.688;2023-06-01T14:22:48;11.08;;;6.62;;
73850;SDS011;62190;51.548;5.688;2023-06-01T14:25:16;10.35;;;6.53;;
73850;SDS011;62190;51.548;5.688;2023-06-01T14:27:43;9.40;;;5.30;;
73850;SDS011;62190;51.548;5.688;2023-06-01T14:30:10;11.95;;;6.22;;
73850;SDS011;62190;51.548;5.688;2023-06-01T14:32:38;10.95;;;6.12;;
73850;SDS011;62190;51.548;5.688;2023-06-01T14:35:05;9.93;;;5.50;;
73850;SDS011;62190;51.548;5.688;2023-06-01T14:37:33;12.10;;;5.53;;
73850;SDS011;62190;51.548;5.688;2023-06-01T14:40:00;10.20;;;5.10;;
73850;SDS011;62190;51.548;5.688;2023-06-01T14:42:27;10.60;;;5.90;;
73850;SDS011;62190;51.548;5.688;2023-06-01T14:44:55;8.30;;;4.83;;
73850;SDS011;62190;51.548;5.688;2023-06-01T14:47:23;10.70;;;5.12;;
73850;SDS011;62190;51.548;5.688;2023-06-01T14:49:50;9.38;;;4.53;;
73850;SDS011;62190;51.548;5.688;2023-06-01T14:52:17;7.47;;;5.45;;
73850;SDS011;62190;51.548;5.688;2023-06-01T14:54:45;9.93;;;5.00;;
73850;SDS011;62190;51.548;5.688;2023-06-01T14:57:14;10.55;;;5.72;;
73850;SDS011;62190;51.548;5.688;2023-06-01T14:59:41;8.03;;;4.12;;
73850;SDS011;62190;51.548;5.688;2023-06-01T15:02:09;9.75;;;5.33;;
73850;SDS011;62190;51.548;5.688;2023-06-01T15:04:36;9.48;;;6.55;;
73850;SDS011;62190;51.548;5.688;2023-06-01T15:07:03;10.43;;;5.80;;
73850;SDS011;62190;51.548;5.688;2023-06-01T15:09:31;9.43;;;5.37;;
73850;SDS011;62190;51.548;5.688;2023-06-01T15:11:58;10.00;;;5.80;;
73850;SDS011;62190;51.548;5.688;2023-06-01T15:14:26;11.55;;;6.25;;